sensor_id;sensor_type;location;lat;lon;timestamp;pressure;altitude;pressure_sealevel;temperature;humidity
27643;BME280;15053;48.618;10.024;2023-06-01T00:02:11;94425.50;;;18.01;44.25
27643;BME280;15053;48.618;10.024;2023-06-01T00:04:39;94433.06;;;18.03;44.17
27643;BME280;15053;48.618;10.024;2023-06-01T00:07:08;94430.78;;;18.01;44.17
27643;BME280;15053;48.618;10.024;2023-06-01T00:09:34;94431.09;;;18.00;44.35
27643;BME280;15053;48.618;10.024;2023-06-01T00:12:01;94428.34;;;17.96;44.06
27643;BME280;15053;48.618;10.024;2023-06-01T00:14:28;94428.13;;;17.89;44.49
27643;BME280;15053;48.618;10.024;2023-06-01T00:16:55;94428.63;;;17.83;45.12
27643;BME280;15053;48.618;10.024;2023-06-01T00:19:26;94434.13;;;17.78;45.17
27643;BME280;15053;48.618;10.024;2023-06-01T00:21:54;94436.75;;;17.78;45.13
27643;BME280;15053;48.618;10.024;2023-06-01T00:24:21;94424.56;;;17.73;45.10
27643;BME280;15053;48.618;10.024;2023-06-01T00:26:48;94436.00;;;17.77;45.10
27643;BME280;15053;48.618;10.024;2023-06-01T00:29:15;94420.59;;;17.67;45.29
27643;BME280;15053;48.618;10.024;2023-06-01T00:31:42;94438.75;;;17.68;45.27
27643;BME280;15053;48.618;10.024;2023-06-01T00:34:09;94419.28;;;17.61;45.41
27643;BME280;15053;48.618;10.024;2023-06-01T00:36:35;94432.91;;;17.63;45.78
27643;BME280;15053;48.618;10.024;2023-06-01T00:39:02;94430.91;;;17.60;45.98
27643;BME280;15053;48.618;10.024;2023-06-01T00:41:31;94424.50;;;17.49;46.31
27643;BME280;15053;48.618;10.024;2023-06-01T00:43:58;94421.69;;;17.33;46.50
27643;BME280;15053;48.618;10.024;2023-06-01T00:46:25;94428.00;;;17.20;46.66
27643;BME280;15053;48.618;10.024;2023-06-01T00:48:52;94422.94;;;17.15;46.78
27643;BME280;15053;48.618;10.024;2023-06-01T00:51:19;94420.19;;;17.11;47.35
27643;BME280;15053;48.618;10.024;2023-06-01T00:53:46;94422.25;;;17.06;47.17
27643;BME280;15053;48.618;10.024;2023-06-01T00:56:13;94424.88;;;17.06;47.30
27643;BME280;15053;48.618;10.024;2023-06-01T00:58:41;94421.03;;;17.03;47.62
27643;BME280;15053;48.618;10.024;2023-06-01T01:01:07;94413.47;;;17.02;47.94
27643;BME280;15053;48.618;10.024;2023-06-01T01:03:35;94416.75;;;16.99;48.05
27643;BME280;15053;48.618;10.024;2023-06-01T01:11:28;94420.72;;;17.05;47.64
27643;BME280;15053;48.618;10.024;2023-06-01T01:14:20;94419.88;;;17.13;47.89
27643;BME280;15053;48.618;10.024;2023-06-01T01:17:02;94416.28;;;17.18;47.82
27643;BME280;15053;48.618;10.024;2023-06-01T01:19:43;94414.53;;;17.22;47.70
27643;BME280;15053;48.618;10.024;2023-06-01T01:25:21;94425.00;;;17.30;47.82
27643;BME280;15053;48.618;10.024;2023-06-01T01:30:36;94416.06;;;17.23;48.00
27643;BME280;15053;48.618;10.024;2023-06-01T01:33:04;94420.44;;;17.19;48.48
27643;BME280;15053;48.618;10.024;2023-06-01T01:35:31;94415.38;;;17.14;48.35
27643;BME280;15053;48.618;10.024;2023-06-01T01:37:58;94414.47;;;17.09;48.63
27643;BME280;15053;48.618;10.024;2023-06-01T01:40:25;94409.56;;;17.08;48.61
27643;BME280;15053;48.618;10.024;2023-06-01T01:42:52;94413.28;;;17.07;48.54
27643;BME280;15053;48.618;10.024;2023-06-01T01:45:20;94404.59;;;17.06;48.87
27643;BME280;15053;48.618;10.024;2023-06-01T01:47:54;94407.38;;;17.10;48.57
27643;BME280;15053;48.618;10.024;2023-06-01T01:50:27;94410.44;;;17.12;48.70
27643;BME280;15053;48.618;10.024;2023-06-01T01:52:54;94402.09;;;17.10;48.93
27643;BME280;15053;48.618;10.024;2023-06-01T01:55:23;94406.44;;;17.06;49.21
27643;BME280;15053;48.618;10.024;2023-06-01T01:57:51;94408.50;;;17.00;49.12
27643;BME280;15053;48.618;10.024;2023-06-01T02:00:19;94401.59;;;16.96;49.40
27643;BME280;15053;48.618;10.024;2023-06-01T02:02:46;94405.19;;;16.91;49.62
27643;BME280;15053;48.618;10.024;2023-06-01T02:05:14;94403.28;;;16.80;49.84
27643;BME280;15053;48.618;10.024;2023-06-01T02:07:41;94403.13;;;16.76;49.82
27643;BME280;15053;48.618;10.024;2023-06-01T02:10:08;94399.50;;;16.69;50.29
27643;BME280;15053;48.618;10.024;2023-06-01T02:12:34;94402.44;;;16.67;50.47
27643;BME280;15053;48.618;10.024;2023-06-01T02:15:01;94396.28;;;16.63;50.57
27643;BME280;15053;48.618;10.024;2023-06-01T02:17:28;94392.56;;;16.64;50.81
27643;BME280;15053;48.618;10.024;2023-06-01T02:19:55;94403.72;;;16.61;50.85
27643;BME280;15053;48.618;10.024;2023-06-01T02:22:21;94394.94;;;16.57;50.77
27643;BME280;15053;48.618;10.024;2023-06-01T02:24:48;94389.06;;;16.51;51.14
27643;BME280;15053;48.618;10.024;2023-06-01T02:27:14;94397.88;;;16.56;50.97
27643;BME280;15053;48.618;10.024;2023-06-01T02:29:41;94397.72;;;16.52;51.28
27643;BME280;15053;48.618;10.024;2023-06-01T02:32:08;94395.59;;;16.45;51.56
27643;BME280;15053;48.618;10.024;2023-06-01T02:34:35;94390.28;;;16.33;52.09
27643;BME280;15053;48.618;10.024;2023-06-01T02:37:03;94391.53;;;16.27;51.91
27643;BME280;15053;48.618;10.024;2023-06-01T02:39:31;94400.88;;;16.16;52.31
27643;BME280;15053;48.618;10.024;2023-06-01T02:41:57;94390.25;;;16.04;52.72
27643;BME280;15053;48.618;10.024;2023-06-01T02:44:24;94397.09;;;15.97;52.71
27643;BME280;15053;48.618;10.024;2023-06-01T02:46:51;94397.63;;;15.90;53.12
27643;BME280;15053;48.618;10.024;2023-06-01T02:49:17;94385.28;;;15.82;53.08
27643;BME280;15053;48.618;10.024;2023-06-01T02:51:44;94390.25;;;15.75;53.03
27643;BME280;15053;48.618;10.024;2023-06-01T02:54:17;94385.63;;;15.72;53.52
27643;BME280;15053;48.618;10.024;2023-06-01T02:56:43;94389.97;;;15.68;53.47
27643;BME280;15053;48.618;10.024;2023-06-01T02:59:45;94389.69;;;15.61;53.31
27643;BME280;15053;48.618;10.024;2023-06-01T03:02:12;94390.94;;;15.55;53.89
27643;BME280;15053;48.618;10.024;2023-06-01T03:04:38;94388.03;;;15.48;54.40
27643;BME280;15053;48.618;10.024;2023-06-01T03:07:05;94391.09;;;15.41;54.28
27643;BME280;15053;48.618;10.024;2023-06-01T03:09:36;94391.59;;;15.34;54.36
27643;BME280;15053;48.618;10.024;2023-06-01T03:12:15;94387.56;;;15.28;54.56
27643;BME280;15053;48.618;10.024;2023-06-01T03:14:42;94394.53;;;15.24;54.87
27643;BME280;15053;48.618;10.024;2023-06-01T03:17:08;94389.44;;;15.19;55.35
27643;BME280;15053;48.618;10.024;2023-06-01T03:19:35;94389.94;;;15.13;55.08
27643;BME280;15053;48.618;10.024;2023-06-01T03:22:10;94391.94;;;15.07;55.53
27643;BME280;15053;48.618;10.024;2023-06-01T03:24:36;94390.72;;;15.05;55.83
27643;BME280;15053;48.618;10.024;2023-06-01T03:27:03;94394.25;;;15.00;56.27
27643;BME280;15053;48.618;10.024;2023-06-01T03:29:33;94392.25;;;14.97;56.59
27643;BME280;15053;48.618;10.024;2023-06-01T03:32:00;94392.41;;;14.92;56.17
27643;BME280;15053;48.618;10.024;2023-06-01T03:34:27;94393.34;;;14.88;56.85
27643;BME280;15053;48.618;10.024;2023-06-01T03:36:53;94391.66;;;14.83;57.10
27643;BME280;15053;48.618;10.024;2023-06-01T03:39:20;94388.44;;;14.77;57.41
27643;BME280;15053;48.618;10.024;2023-06-01T03:41:46;94391.94;;;14.73;57.22
27643;BME280;15053;48.618;10.024;2023-06-01T03:44:14;94395.81;;;14.67;57.89
27643;BME280;15053;48.618;10.024;2023-06-01T03:46:41;94404.91;;;14.61;57.95
27643;BME280;15053;48.618;10.024;2023-06-01T03:49:07;94403.19;;;14.56;58.36
27643;BME280;15053;48.618;10.024;2023-06-01T03:51:34;94404.59;;;14.54;58.15
27643;BME280;15053;48.618;10.024;2023-06-01T03:54:02;94412.28;;;14.50;58.46
27643;BME280;15053;48.618;10.024;2023-06-01T03:56:29;94407.69;;;14.47;58.87
27643;BME280;15053;48.618;10.024;2023-06-01T03:58:59;94405.81;;;14.48;58.85
27643;BME280;15053;48.618;10.024;2023-06-01T04:01:26;94406.28;;;14.50;59.33
27643;BME280;15053;48.618;10.024;2023-06-01T04:03:56;94408.31;;;14.53;59.23
27643;BME280;15053;48.618;10.024;2023-06-01T04:06:23;94404.13;;;14.52;58.89
27643;BME280;15053;48.618;10.024;2023-06-01T04:08:51;94411.84;;;14.57;59.40
27643;BME280;15053;48.618;10.024;2023-06-01T04:11:22;94409.22;;;14.57;59.17
27643;BME280;15053;48.618;10.024;2023-06-01T04:13:50;94414.47;;;14.57;59.51
27643;BME280;15053;48.618;10.024;2023-06-01T04:16:17;94416.00;;;14.58;58.97
27643;BME280;15053;48.618;10.024;2023-06-01T04:18:44;94414.91;;;14.59;59.38
27643;BME280;15053;48.618;10.024;2023-06-01T04:21:23;94416.00;;;14.58;59.47
27643;BME280;15053;48.618;10.024;2023-06-01T04:23:50;94421.25;;;14.58;59.65
27643;BME280;15053;48.618;10.024;2023-06-01T04:26:18;94421.25;;;14.58;59.14
27643;BME280;15053;48.618;10.024;2023-06-01T04:28:46;94424.34;;;14.60;59.48
27643;BME280;15053;48.618;10.024;2023-06-01T04:31:13;94431.59;;;14.63;59.95
27643;BME280;15053;48.618;10.024;2023-06-01T04:33:47;94423.56;;;14.68;59.33
27643;BME280;15053;48.618;10.024;2023-06-01T04:36:24;94431.00;;;14.74;59.53
27643;BME280;15053;48.618;10.024;2023-06-01T04:38:54;94426.97;;;14.77;59.65
27643;BME280;15053;48.618;10.024;2023-06-01T04:41:22;94426.97;;;14.86;59.46
27643;BME280;15053;48.618;10.024;2023-06-01T04:43:50;94432.22;;;14.94;59.54
27643;BME280;15053;48.618;10.024;2023-06-01T04:46:22;94424.81;;;15.05;58.91
27643;BME280;15053;48.618;10.024;2023-06-01T04:48:54;94423.72;;;15.14;58.80
27643;BME280;15053;48.618;10.024;2023-06-01T04:51:29;94425.56;;;15.22;58.76
27643;BME280;15053;48.618;10.024;2023-06-01T04:53:59;94425.88;;;15.29;58.44
27643;BME280;15053;48.618;10.024;2023-06-01T04:56:25;94425.53;;;15.40;59.10
27643;BME280;15053;48.618;10.024;2023-06-01T04:58:55;94426.91;;;15.46;59.52
27643;BME280;15053;48.618;10.024;2023-06-01T05:01:26;94424.59;;;15.53;59.42
27643;BME280;15053;48.618;10.024;2023-06-01T05:03:56;94425.03;;;15.63;59.61
27643;BME280;15053;48.618;10.024;2023-06-01T05:06:24;94418.22;;;15.71;59.39
27643;BME280;15053;48.618;10.024;2023-06-01T05:08:54;94416.06;;;15.73;59.07
27643;BME280;15053;48.618;10.024;2023-06-01T05:11:22;94417.56;;;15.82;59.25
27643;BME280;15053;48.618;10.024;2023-06-01T05:13:49;94414.31;;;15.85;59.30
27643;BME280;15053;48.618;10.024;2023-06-01T05:16:17;94416.72;;;15.99;59.27
27643;BME280;15053;48.618;10.024;2023-06-01T05:18:44;94425.78;;;16.10;59.08
27643;BME280;15053;48.618;10.024;2023-06-01T05:21:11;94419.56;;;16.23;58.94
27643;BME280;15053;48.618;10.024;2023-06-01T05:23:38;94423.81;;;16.36;58.33
27643;BME280;15053;48.618;10.024;2023-06-01T05:26:05;94420.59;;;16.51;58.40
27643;BME280;15053;48.618;10.024;2023-06-01T05:28:36;94425.34;;;16.67;58.12
27643;BME280;15053;48.618;10.024;2023-06-01T05:31:05;94422.78;;;16.79;57.52
27643;BME280;15053;48.618;10.024;2023-06-01T05:33:37;94422.22;;;16.94;56.49
27643;BME280;15053;48.618;10.024;2023-06-01T05:36:04;94421.72;;;17.13;55.23
27643;BME280;15053;48.618;10.024;2023-06-01T05:38:31;94415.22;;;17.31;54.59
27643;BME280;15053;48.618;10.024;2023-06-01T05:40:58;94414.75;;;17.49;53.75
27643;BME280;15053;48.618;10.024;2023-06-01T05:43:25;94411.50;;;17.64;52.86
27643;BME280;15053;48.618;10.024;2023-06-01T05:45:51;94413.50;;;17.80;52.01
27643;BME280;15053;48.618;10.024;2023-06-01T05:48:18;94419.22;;;17.94;51.46
27643;BME280;15053;48.618;10.024;2023-06-01T05:50:49;94422.31;;;18.08;50.96
27643;BME280;15053;48.618;10.024;2023-06-01T05:53:16;94419.25;;;18.18;50.38
27643;BME280;15053;48.618;10.024;2023-06-01T05:55:43;94419.56;;;18.28;50.18
27643;BME280;15053;48.618;10.024;2023-06-01T05:58:09;94422.97;;;18.41;49.62
27643;BME280;15053;48.618;10.024;2023-06-01T06:00:37;94417.28;;;18.51;49.64
27643;BME280;15053;48.618;10.024;2023-06-01T06:03:03;94416.81;;;18.61;49.15
27643;BME280;15053;48.618;10.024;2023-06-01T06:05:30;94415.25;;;18.72;49.11
27643;BME280;15053;48.618;10.024;2023-06-01T06:07:57;94417.44;;;18.82;48.67
27643;BME280;15053;48.618;10.024;2023-06-01T06:10:24;94420.28;;;18.90;48.44
27643;BME280;15053;48.618;10.024;2023-06-01T06:12:50;94416.94;;;18.93;48.19
27643;BME280;15053;48.618;10.024;2023-06-01T06:15:17;94422.97;;;19.05;48.16
27643;BME280;15053;48.618;10.024;2023-06-01T06:17:43;94421.97;;;19.10;47.53
27643;BME280;15053;48.618;10.024;2023-06-01T06:20:10;94424.72;;;19.13;47.44
27643;BME280;15053;48.618;10.024;2023-06-01T06:22:38;94423.69;;;19.18;47.54
27643;BME280;15053;48.618;10.024;2023-06-01T06:25:05;94428.06;;;19.26;47.01
27643;BME280;15053;48.618;10.024;2023-06-01T06:27:32;94431.16;;;19.28;46.99
27643;BME280;15053;48.618;10.024;2023-06-01T06:29:59;94427.06;;;19.30;46.58
27643;BME280;15053;48.618;10.024;2023-06-01T06:32:25;94428.03;;;19.38;46.52
27643;BME280;15053;48.618;10.024;2023-06-01T06:34:52;94424.91;;;19.48;46.61
27643;BME280;15053;48.618;10.024;2023-06-01T06:37:19;94429.28;;;19.56;46.53
27643;BME280;15053;48.618;10.024;2023-06-01T06:39:45;94424.50;;;19.62;45.94
27643;BME280;15053;48.618;10.024;2023-06-01T06:42:12;94431.88;;;19.68;46.12
27643;BME280;15053;48.618;10.024;2023-06-01T06:44:38;94431.19;;;19.71;46.09
27643;BME280;15053;48.618;10.024;2023-06-01T06:47:05;94426.84;;;19.79;46.07
27643;BME280;15053;48.618;10.024;2023-06-01T06:49:32;94430.09;;;19.88;45.80
27643;BME280;15053;48.618;10.024;2023-06-01T06:51:58;94425.91;;;20.02;45.86
27643;BME280;15053;48.618;10.024;2023-06-01T06:54:25;94419.69;;;20.11;45.51
27643;BME280;15053;48.618;10.024;2023-06-01T06:56:51;94420.97;;;20.17;45.66
27643;BME280;15053;48.618;10.024;2023-06-01T06:59:18;94424.59;;;20.24;45.69
27643;BME280;15053;48.618;10.024;2023-06-01T07:01:44;94425.94;;;20.34;45.90
27643;BME280;15053;48.618;10.024;2023-06-01T07:04:11;94421.66;;;20.45;45.68
27643;BME280;15053;48.618;10.024;2023-06-01T07:06:37;94420.28;;;20.51;45.42
27643;BME280;15053;48.618;10.024;2023-06-01T07:09:04;94424.88;;;20.54;45.81
27643;BME280;15053;48.618;10.024;2023-06-01T07:11:32;94425.38;;;20.59;45.68
27643;BME280;15053;48.618;10.024;2023-06-01T07:13:58;94430.50;;;20.68;45.69
27643;BME280;15053;48.618;10.024;2023-06-01T07:16:25;94423.38;;;20.72;45.65
27643;BME280;15053;48.618;10.024;2023-06-01T07:18:53;94428.56;;;20.84;45.94
27643;BME280;15053;48.618;10.024;2023-06-01T07:21:19;94418.09;;;20.91;45.33
27643;BME280;15053;48.618;10.024;2023-06-01T07:23:46;94421.03;;;21.05;45.40
27643;BME280;15053;48.618;10.024;2023-06-01T07:26:12;94423.13;;;21.12;45.32
27643;BME280;15053;48.618;10.024;2023-06-01T07:28:39;94417.03;;;21.11;44.96
27643;BME280;15053;48.618;10.024;2023-06-01T07:31:06;94424.00;;;21.20;44.63
27643;BME280;15053;48.618;10.024;2023-06-01T07:33:34;94422.34;;;21.31;44.94
27643;BME280;15053;48.618;10.024;2023-06-01T07:36:03;94423.63;;;21.40;45.02
27643;BME280;15053;48.618;10.024;2023-06-01T07:38:30;94418.53;;;21.51;45.20
27643;BME280;15053;48.618;10.024;2023-06-01T07:40:57;94417.28;;;21.64;45.43
27643;BME280;15053;48.618;10.024;2023-06-01T07:43:24;94413.97;;;21.70;45.07
27643;BME280;15053;48.618;10.024;2023-06-01T07:45:50;94416.00;;;21.77;45.13
27643;BME280;15053;48.618;10.024;2023-06-01T07:48:17;94411.94;;;21.83;44.82
27643;BME280;15053;48.618;10.024;2023-06-01T07:50:44;94413.44;;;21.84;44.52
27643;BME280;15053;48.618;10.024;2023-06-01T07:53:11;94416.25;;;21.91;44.81
27643;BME280;15053;48.618;10.024;2023-06-01T07:55:37;94415.56;;;21.94;44.61
27643;BME280;15053;48.618;10.024;2023-06-01T07:58:04;94417.50;;;21.97;44.37
27643;BME280;15053;48.618;10.024;2023-06-01T08:00:31;94412.00;;;22.09;44.58
27643;BME280;15053;48.618;10.024;2023-06-01T08:02:58;94416.72;;;22.19;44.31
27643;BME280;15053;48.618;10.024;2023-06-01T08:05:25;94419.06;;;22.24;43.78
27643;BME280;15053;48.618;10.024;2023-06-01T08:07:52;94417.69;;;22.34;43.63
27643;BME280;15053;48.618;10.024;2023-06-01T08:10:19;94409.78;;;22.38;43.43
27643;BME280;15053;48.618;10.024;2023-06-01T08:12:45;94408.78;;;22.46;43.54
27643;BME280;15053;48.618;10.024;2023-06-01T08:15:14;94406.31;;;22.60;43.57
27643;BME280;15053;48.618;10.024;2023-06-01T08:17:42;94401.59;;;22.72;43.53
27643;BME280;15053;48.618;10.024;2023-06-01T08:20:10;94415.44;;;22.88;43.03
27643;BME280;15053;48.618;10.024;2023-06-01T08:22:37;94409.88;;;22.97;42.88
27643;BME280;15053;48.618;10.024;2023-06-01T08:25:04;94412.59;;;23.01;42.78
27643;BME280;15053;48.618;10.024;2023-06-01T08:27:31;94413.81;;;23.07;42.70
27643;BME280;15053;48.618;10.024;2023-06-01T08:29:58;94409.81;;;23.23;42.18
27643;BME280;15053;48.618;10.024;2023-06-01T08:32:25;94412.22;;;23.35;42.23
27643;BME280;15053;48.618;10.024;2023-06-01T08:34:52;94415.81;;;23.46;41.60
27643;BME280;15053;48.618;10.024;2023-06-01T08:37:19;94420.06;;;23.55;42.45
27643;BME280;15053;48.618;10.024;2023-06-01T08:39:45;94414.56;;;23.74;41.98
27643;BME280;15053;48.618;10.024;2023-06-01T08:42:37;94408.16;;;23.82;41.04
27643;BME280;15053;48.618;10.024;2023-06-01T08:45:06;94407.44;;;23.81;40.38
27643;BME280;15053;48.618;10.024;2023-06-01T08:47:32;94415.09;;;23.90;40.18
27643;BME280;15053;48.618;10.024;2023-06-01T08:50:01;94408.72;;;24.01;40.55
27643;BME280;15053;48.618;10.024;2023-06-01T08:52:29;94406.59;;;24.14;40.95
27643;BME280;15053;48.618;10.024;2023-06-01T08:55:00;94404.78;;;24.25;40.64
27643;BME280;15053;48.618;10.024;2023-06-01T08:57:27;94402.56;;;24.34;40.71
27643;BME280;15053;48.618;10.024;2023-06-01T08:59:55;94392.03;;;24.52;40.31
27643;BME280;15053;48.618;10.024;2023-06-01T09:02:22;94404.97;;;24.50;39.95
27643;BME280;15053;48.618;10.024;2023-06-01T09:04:49;94395.78;;;24.44;38.59
27643;BME280;15053;48.618;10.024;2023-06-01T09:07:16;94404.44;;;24.34;38.37
27643;BME280;15053;48.618;10.024;2023-06-01T09:09:43;94410.16;;;24.32;38.77
27643;BME280;15053;48.618;10.024;2023-06-01T09:14:45;94403.81;;;24.47;39.05
27643;BME280;15053;48.618;10.024;2023-06-01T09:17:20;94405.28;;;24.45;39.03
27643;BME280;15053;48.618;10.024;2023-06-01T09:19:54;94402.66;;;24.48;38.77
27643;BME280;15053;48.618;10.024;2023-06-01T09:22:24;94396.63;;;24.58;38.84
27643;BME280;15053;48.618;10.024;2023-06-01T09:24:58;94399.72;;;24.67;39.51
27643;BME280;15053;48.618;10.024;2023-06-01T09:27:25;94400.97;;;24.81;39.70
27643;BME280;15053;48.618;10.024;2023-06-01T09:29:54;94403.66;;;24.84;38.66
27643;BME280;15053;48.618;10.024;2023-06-01T09:32:20;94402.19;;;24.97;38.25
27643;BME280;15053;48.618;10.024;2023-06-01T09:34:48;94400.75;;;25.10;38.47
27643;BME280;15053;48.618;10.024;2023-06-01T09:37:14;94407.69;;;25.33;38.74
27643;BME280;15053;48.618;10.024;2023-06-01T09:39:41;94395.50;;;25.39;38.63
27643;BME280;15053;48.618;10.024;2023-06-01T09:42:09;94400.84;;;25.39;39.10
27643;BME280;15053;48.618;10.024;2023-06-01T09:44:37;94395.91;;;25.41;38.97
27643;BME280;15053;48.618;10.024;2023-06-01T09:47:06;94394.44;;;25.50;37.74
27643;BME280;15053;48.618;10.024;2023-06-01T09:49:36;94398.63;;;25.55;37.35
27643;BME280;15053;48.618;10.024;2023-06-01T09:54:33;94394.84;;;25.66;37.17
27643;BME280;15053;48.618;10.024;2023-06-01T09:57:01;94380.38;;;25.67;37.23
27643;BME280;15053;48.618;10.024;2023-06-01T09:59:45;94379.22;;;25.72;37.02
27643;BME280;15053;48.618;10.024;2023-06-01T10:02:17;94386.50;;;25.86;37.24
27643;BME280;15053;48.618;10.024;2023-06-01T10:04:48;94375.81;;;25.89;36.95
27643;BME280;15053;48.618;10.024;2023-06-01T10:07:16;94376.56;;;25.93;36.84
27643;BME280;15053;48.618;10.024;2023-06-01T10:09:48;94377.38;;;26.01;36.06
27643;BME280;15053;48.618;10.024;2023-06-01T10:12:16;94375.88;;;26.14;35.64
27643;BME280;15053;48.618;10.024;2023-06-01T10:14:43;94378.50;;;26.21;35.85
27643;BME280;15053;48.618;10.024;2023-06-01T10:17:09;94366.69;;;26.36;35.51
27643;BME280;15053;48.618;10.024;2023-06-01T10:19:37;94371.66;;;26.45;35.54
27643;BME280;15053;48.618;10.024;2023-06-01T10:22:05;94364.34;;;26.59;35.53
27643;BME280;15053;48.618;10.024;2023-06-01T10:24:34;94370.81;;;26.65;35.69
27643;BME280;15053;48.618;10.024;2023-06-01T10:30:14;94358.59;;;26.85;33.98
27643;BME280;15053;48.618;10.024;2023-06-01T10:32:42;94369.56;;;27.12;34.97
27643;BME280;15053;48.618;10.024;2023-06-01T10:35:57;94369.09;;;27.35;34.60
27643;BME280;15053;48.618;10.024;2023-06-01T10:40:44;94367.84;;;27.57;34.20
27643;BME280;15053;48.618;10.024;2023-06-01T10:46:38;94361.66;;;27.67;33.07
27643;BME280;15053;48.618;10.024;2023-06-01T10:49:10;94361.75;;;27.53;32.65
27643;BME280;15053;48.618;10.024;2023-06-01T10:51:37;94355.69;;;27.38;32.49
27643;BME280;15053;48.618;10.024;2023-06-01T10:54:27;94356.06;;;27.44;34.09
27643;BME280;15053;48.618;10.024;2023-06-01T10:57:25;94354.41;;;27.68;34.62
27643;BME280;15053;48.618;10.024;2023-06-01T11:02:47;94362.56;;;28.01;33.28
27643;BME280;15053;48.618;10.024;2023-06-01T11:05:46;94352.94;;;28.15;32.27
27643;BME280;15053;48.618;10.024;2023-06-01T11:13:34;94351.28;;;27.76;32.39
27643;BME280;15053;48.618;10.024;2023-06-01T11:21:15;94337.09;;;28.31;32.51
27643;BME280;15053;48.618;10.024;2023-06-01T11:23:45;94336.50;;;28.13;31.81
27643;BME280;15053;48.618;10.024;2023-06-01T11:26:15;94341.34;;;27.77;32.27
27643;BME280;15053;48.618;10.024;2023-06-01T11:28:48;94331.84;;;27.65;32.95
27643;BME280;15053;48.618;10.024;2023-06-01T11:31:16;94334.78;;;27.85;32.57
27643;BME280;15053;48.618;10.024;2023-06-01T11:33:49;94326.56;;;28.09;31.25
27643;BME280;15053;48.618;10.024;2023-06-01T11:36:20;94331.41;;;28.25;31.04
27643;BME280;15053;48.618;10.024;2023-06-01T11:38:50;94322.91;;;28.34;31.23
27643;BME280;15053;48.618;10.024;2023-06-01T11:41:19;94316.75;;;28.37;32.37
27643;BME280;15053;48.618;10.024;2023-06-01T11:43:53;94321.41;;;28.29;31.91
27643;BME280;15053;48.618;10.024;2023-06-01T11:46:22;94322.22;;;28.23;31.69
27643;BME280;15053;48.618;10.024;2023-06-01T11:48:58;94317.53;;;28.34;31.46
27643;BME280;15053;48.618;10.024;2023-06-01T11:51:29;94323.16;;;28.46;30.06
27643;BME280;15053;48.618;10.024;2023-06-01T11:53:57;94317.00;;;28.49;28.75
27643;BME280;15053;48.618;10.024;2023-06-01T11:56:35;94297.34;;;28.63;29.28
27643;BME280;15053;48.618;10.024;2023-06-01T11:59:03;94322.44;;;28.80;28.93
27643;BME280;15053;48.618;10.024;2023-06-01T12:01:42;94320.22;;;28.71;28.11
27643;BME280;15053;48.618;10.024;2023-06-01T12:04:17;94320.94;;;28.79;28.25
27643;BME280;15053;48.618;10.024;2023-06-01T12:06:44;94321.47;;;28.97;28.01
27643;BME280;15053;48.618;10.024;2023-06-01T12:09:12;94317.44;;;29.12;28.41
27643;BME280;15053;48.618;10.024;2023-06-01T12:11:39;94315.69;;;29.32;28.37
27643;BME280;15053;48.618;10.024;2023-06-01T12:14:08;94311.16;;;29.25;28.38
27643;BME280;15053;48.618;10.024;2023-06-01T12:16:54;94308.91;;;29.20;27.31
27643;BME280;15053;48.618;10.024;2023-06-01T12:19:23;94302.41;;;29.18;27.04
27643;BME280;15053;48.618;10.024;2023-06-01T12:21:50;94296.03;;;29.08;27.67
27643;BME280;15053;48.618;10.024;2023-06-01T12:24:18;94289.16;;;29.07;27.72
27643;BME280;15053;48.618;10.024;2023-06-01T12:26:52;94295.88;;;29.22;27.48
27643;BME280;15053;48.618;10.024;2023-06-01T12:29:35;94289.41;;;29.47;28.13
27643;BME280;15053;48.618;10.024;2023-06-01T12:32:04;94279.88;;;29.69;27.36
27643;BME280;15053;48.618;10.024;2023-06-01T12:34:30;94282.44;;;29.76;27.60
27643;BME280;15053;48.618;10.024;2023-06-01T12:36:57;94277.19;;;29.92;27.55
27643;BME280;15053;48.618;10.024;2023-06-01T12:39:33;94272.41;;;30.03;27.58
27643;BME280;15053;48.618;10.024;2023-06-01T12:42:03;94278.91;;;29.83;27.57
27643;BME280;15053;48.618;10.024;2023-06-01T12:44:31;94277.28;;;29.62;26.57
27643;BME280;15053;48.618;10.024;2023-06-01T12:47:03;94273.00;;;29.11;26.92
27643;BME280;15053;48.618;10.024;2023-06-01T12:49:30;94271.19;;;29.31;28.20
27643;BME280;15053;48.618;10.024;2023-06-01T12:51:57;94262.75;;;29.59;28.44
27643;BME280;15053;48.618;10.024;2023-06-01T12:54:23;94263.97;;;29.78;27.71
27643;BME280;15053;48.618;10.024;2023-06-01T12:56:50;94270.16;;;30.02;27.76
27643;BME280;15053;48.618;10.024;2023-06-01T12:59:17;94262.41;;;30.27;26.63
27643;BME280;15053;48.618;10.024;2023-06-01T13:01:44;94250.53;;;30.24;26.68
27643;BME280;15053;48.618;10.024;2023-06-01T13:04:11;94250.66;;;30.17;26.01
27643;BME280;15053;48.618;10.024;2023-06-01T13:06:37;94253.41;;;30.37;26.90
27643;BME280;15053;48.618;10.024;2023-06-01T13:09:05;94258.31;;;30.62;27.61
27643;BME280;15053;48.618;10.024;2023-06-01T13:11:33;94253.59;;;30.26;26.92
27643;BME280;15053;48.618;10.024;2023-06-01T13:13:59;94253.06;;;29.65;28.13
27643;BME280;15053;48.618;10.024;2023-06-01T13:16:26;94247.19;;;29.20;27.18
27643;BME280;15053;48.618;10.024;2023-06-01T13:18:53;94242.47;;;29.01;28.16
27643;BME280;15053;48.618;10.024;2023-06-01T13:21:20;94238.34;;;28.93;28.23
27643;BME280;15053;48.618;10.024;2023-06-01T13:23:47;94234.41;;;29.01;28.62
27643;BME280;15053;48.618;10.024;2023-06-01T13:26:14;94234.38;;;29.32;29.32
27643;BME280;15053;48.618;10.024;2023-06-01T13:28:41;94234.06;;;29.79;29.23
27643;BME280;15053;48.618;10.024;2023-06-01T13:31:08;94233.88;;;30.13;28.64
27643;BME280;15053;48.618;10.024;2023-06-01T13:33:35;94228.34;;;30.44;27.22
27643;BME280;15053;48.618;10.024;2023-06-01T13:36:03;94232.41;;;30.52;27.64
27643;BME280;15053;48.618;10.024;2023-06-01T13:38:30;94220.78;;;30.55;26.85